Sydney Harbour Wedding, New South Wales

2:03 PM AEST on September 20, 2014 (GMT +1000)
Mosman | Change Station
CLOSE
Current Station
Personal Weather Station
Location: Mosman, NEW SOUTH WALES
Elevation: 95 ft
Nearby Weather Stations

Elev 95 ft 33.82 °S, 151.25 °E | Updated 7 minutes ago

Partly Cloudy
Partly Cloudy
64.0 °F
Feels Like 64.0 °F
N
12.0
Wind Variable Wind from SE
Gusts 12.0 mph

Today
High -- | Low -- °F
--% Chance of Precip.
Yesterday
High -- | Low -- °F
Precip. -- in
5:48 AM 5:49 PM
Waning Crescent, 15% visible
Pressure 30.21 in
Visibility 6.2 miles
Clouds Few 3500 ft
Dew Point 45 °F
Humidity 50%
Rainfall 0.00 in
Snow Depth Not available.
UV 2.5 out of 12
Pollen Not available.
Air Quality Not available.
Flu Activity Not available.
METAR YSSY 200330Z 17016KT 9999 FEW035 17/08 Q1023 NOSIG

More Conditions Fewer Conditions

Pressure 30.21 in
Visibility 6.2 miles
Clouds Few 3500 ft
Dew Point 45 °F
Humidity 50%
Rainfall 0.00 in
Snow Depth Not available.
UV 2.5 out of 12
Pollen Not available.
Air Quality Not available.
Flu Activity Not available.
METAR YSSY 200330Z 17016KT 9999 FEW035 17/08 Q1023 NOSIG

More Conditions Fewer Conditions

10-Day Weather Forecast

Almanac

Astronomy

Sep. 20, 2014 Rise Set
Actual Time 5:48 AM AEST 5:49 PM AEST
Civil Twilight 5:23 AM AEST 6:14 PM AEST
Nautical Twilight 4:54 AM AEST 6:43 PM AEST
Astronomical Twilight 4:25 AM AEST 7:12 PM AEST
Moon 3:10 AM AEST 2:18 PM AEST
Length of Visible Light 12h 51m
Length of Day
12h 01m
Tomorrow will be 2m 5s longer.
Waning Crescent, 15% of the Moon is Illuminated
Today
Waning Crescent
Sep 24
New
Oct 1
First Quarter
Oct 8
Full
Oct 15
Last Quarter

Yesterday's Extremes

Country Highs Country Lows

Community

WunderPhotos

Upload Photos

1,754,777 photos uploaded!

WunderBlogs® & News

Nearby

Snow Depth

Not available.

Earthquake Activity

City Distance Mag. Time & Date
No recent earthquake activity has been reported nearby.
Minimum magnitude displayed is 2.5.

Coastal Water Temperatures

Place Temperature
No Stations Reporting

Nearby Weather Stations